createdAt,value
2022-10-12T00:00:39.794Z,24.23
2022-10-12T00:03:07.830Z,24.47
2022-10-12T00:05:35.815Z,24.50
2022-10-12T00:08:05.332Z,24.47
2022-10-12T00:10:33.248Z,24.63
2022-10-12T00:13:01.251Z,23.47
2022-10-12T00:15:29.255Z,23.50
2022-10-12T00:17:57.194Z,23.17
2022-10-12T00:20:25.139Z,24.10
2022-10-12T00:22:53.095Z,24.57
2022-10-12T00:25:22.524Z,24.63
2022-10-12T00:27:50.485Z,24.20
2022-10-12T00:30:18.846Z,24.40
2022-10-12T00:32:46.856Z,25.43
2022-10-12T00:35:14.898Z,25.53
2022-10-12T00:37:42.948Z,26.17
2022-10-12T00:40:13.039Z,27.33
2022-10-12T00:42:42.354Z,26.77
2022-10-12T00:45:11.239Z,25.07
2022-10-12T00:47:42.813Z,24.47
2022-10-12T00:50:17.056Z,24.07
2022-10-12T00:52:51.187Z,23.77
2022-10-12T00:55:21.081Z,22.63
2022-10-12T00:57:52.425Z,22.20
2022-10-12T01:00:22.260Z,23.17
2022-10-12T01:02:53.246Z,23.53
2022-10-12T01:05:22.262Z,23.33
2022-10-12T01:07:50.583Z,22.57
2022-10-12T01:10:18.825Z,23.30
2022-10-12T01:12:50.680Z,22.70
2022-10-12T01:15:18.820Z,22.77
2022-10-12T01:18:01.110Z,21.80
2022-10-12T01:21:03.144Z,22.70
2022-10-12T01:24:03.649Z,24.20
2022-10-12T01:27:01.405Z,24.30
2022-10-12T01:29:53.452Z,25.37
2022-10-12T01:32:26.141Z,24.70
2022-10-12T01:35:00.135Z,25.73
2022-10-12T01:37:36.485Z,24.43
2022-10-12T01:40:09.034Z,23.20
2022-10-12T01:42:41.414Z,23.93
2022-10-12T01:45:13.509Z,23.97
2022-10-12T01:47:43.949Z,22.53
2022-10-12T01:50:15.405Z,23.20
2022-10-12T01:52:52.879Z,24.10
2022-10-12T01:55:30.047Z,25.37
2022-10-12T01:58:17.322Z,23.73
2022-10-12T02:00:57.109Z,22.10
2022-10-12T02:03:34.949Z,25.27
2022-10-12T02:06:08.318Z,24.80
2022-10-12T02:08:43.011Z,25.37
2022-10-12T02:11:13.688Z,24.60
2022-10-12T02:13:45.034Z,24.50
2022-10-12T02:16:18.329Z,25.07
2022-10-12T02:18:49.547Z,23.90
2022-10-12T02:21:22.350Z,24.73
2022-10-12T02:23:53.763Z,24.37
2022-10-12T02:26:23.032Z,25.20
2022-10-12T02:28:51.701Z,25.47
2022-10-12T02:31:29.927Z,24.47
2022-10-12T02:34:02.369Z,26.67
2022-10-12T02:36:37.874Z,23.67
2022-10-12T02:39:11.844Z,23.37
2022-10-12T02:41:45.973Z,23.93
2022-10-12T02:44:17.301Z,25.00
2022-10-12T02:46:49.285Z,24.90
2022-10-12T02:49:18.633Z,25.00
2022-10-12T02:51:48.261Z,25.83
2022-10-12T02:54:16.539Z,25.90
2022-10-12T02:56:46.051Z,25.90
2022-10-12T02:59:14.549Z,28.10
2022-10-12T03:01:42.693Z,25.83
2022-10-12T03:04:12.033Z,26.80
2022-10-12T03:06:40.091Z,26.37
2022-10-12T03:09:08.137Z,26.23
2022-10-12T03:11:37.736Z,27.50
2022-10-12T03:14:05.791Z,27.63
2022-10-12T03:16:33.755Z,27.70
2022-10-12T03:19:01.766Z,26.03
2022-10-12T03:21:31.118Z,26.87
2022-10-12T03:23:59.152Z,27.27
2022-10-12T03:26:27.284Z,27.37
2022-10-12T03:28:55.504Z,27.17
2022-10-12T03:31:23.649Z,27.43
2022-10-12T03:33:51.668Z,28.50
2022-10-12T03:36:19.705Z,27.13
2022-10-12T03:38:49.085Z,27.47
2022-10-12T03:41:17.029Z,27.10
2022-10-12T03:43:45.824Z,25.33
2022-10-12T03:46:13.912Z,27.23
2022-10-12T03:48:42.004Z,28.37
2022-10-12T03:51:09.978Z,28.67
2022-10-12T03:53:41.775Z,28.13
2022-10-12T03:56:14.463Z,28.27
2022-10-12T03:58:42.418Z,27.97
2022-10-12T04:01:10.461Z,28.67
2022-10-12T04:03:38.510Z,28.47
2022-10-12T04:06:07.094Z,28.30
2022-10-12T04:08:35.126Z,27.83
2022-10-12T04:11:03.160Z,28.37
2022-10-12T04:13:32.548Z,29.43
2022-10-12T04:16:03.608Z,29.07
2022-10-12T04:18:31.998Z,28.50
2022-10-12T04:21:00.692Z,28.20
2022-10-12T04:23:29.149Z,29.23
2022-10-12T04:25:57.091Z,31.40
2022-10-12T04:28:25.111Z,29.30
2022-10-12T04:30:54.569Z,29.07
2022-10-12T04:33:22.525Z,28.93
2022-10-12T04:35:50.555Z,30.73
2022-10-12T04:38:18.727Z,29.73
2022-10-12T04:40:47.982Z,31.13
2022-10-12T04:43:16.620Z,30.43
2022-10-12T04:45:45.028Z,30.77
2022-10-12T04:48:14.344Z,30.67
2022-10-12T04:50:42.320Z,30.20
2022-10-12T04:53:10.318Z,30.63
2022-10-12T04:55:39.051Z,29.33
2022-10-12T04:58:06.980Z,34.07
2022-10-12T05:00:35.091Z,36.47
2022-10-12T05:03:03.036Z,34.77
2022-10-12T05:05:34.426Z,35.73
2022-10-12T05:08:02.486Z,38.17
2022-10-12T05:10:30.599Z,36.33
2022-10-12T05:12:58.680Z,34.97
2022-10-12T05:15:26.651Z,43.20
2022-10-12T05:17:54.688Z,46.63
2022-10-12T05:20:22.738Z,45.33
2022-10-12T05:22:52.099Z,45.23
2022-10-12T05:25:20.585Z,45.00
2022-10-12T05:27:48.656Z,47.43
2022-10-12T05:30:16.891Z,45.37
2022-10-12T05:32:44.939Z,42.77
2022-10-12T05:35:12.898Z,41.17
2022-10-12T05:37:41.228Z,43.53
2022-10-12T05:40:11.794Z,43.53
2022-10-12T05:42:40.125Z,41.83
2022-10-12T05:45:09.385Z,42.47
2022-10-12T05:47:37.827Z,38.70
2022-10-12T05:50:06.837Z,34.67
2022-10-12T05:52:34.984Z,33.13
2022-10-12T05:55:03.177Z,33.83
2022-10-12T05:57:32.705Z,33.50
2022-10-12T06:00:00.655Z,32.77
2022-10-12T06:02:28.717Z,32.77
2022-10-12T06:04:56.681Z,31.40
2022-10-12T06:07:24.774Z,29.40
2022-10-12T06:09:52.711Z,32.00
2022-10-12T06:12:21.092Z,32.10
2022-10-12T06:14:50.497Z,33.63
2022-10-12T06:17:18.447Z,33.47
2022-10-12T06:19:46.513Z,33.63
2022-10-12T06:22:14.469Z,33.10
2022-10-12T06:24:42.477Z,32.83
2022-10-12T06:27:10.466Z,33.50
2022-10-12T06:29:38.501Z,30.80
2022-10-12T06:32:07.784Z,29.57
2022-10-12T06:34:35.763Z,29.40
2022-10-12T06:37:03.731Z,29.13
2022-10-12T06:39:31.868Z,28.20
2022-10-12T06:41:59.889Z,27.87
2022-10-12T06:44:29.633Z,28.97
2022-10-12T06:46:57.699Z,28.70
2022-10-12T06:49:27.111Z,27.10
2022-10-12T06:51:55.094Z,26.17
2022-10-12T06:54:23.038Z,26.90
2022-10-12T06:56:53.356Z,27.80
2022-10-12T06:59:25.020Z,26.73
2022-10-12T07:01:52.970Z,26.83
2022-10-12T07:04:20.915Z,25.83
2022-10-12T07:06:50.623Z,25.67
2022-10-12T07:09:18.787Z,25.20
2022-10-12T07:11:46.934Z,23.57
2022-10-12T07:14:14.921Z,23.97
2022-10-12T07:16:42.880Z,23.87
2022-10-12T07:19:11.052Z,21.20
2022-10-12T07:21:39.033Z,21.17
2022-10-12T07:24:08.941Z,21.20
2022-10-12T07:26:36.928Z,19.60
2022-10-12T07:29:04.919Z,18.63
2022-10-12T07:31:32.888Z,17.73
2022-10-12T07:34:00.877Z,15.87
2022-10-12T07:36:47.319Z,15.13
2022-10-12T07:39:18.446Z,15.30
2022-10-12T07:41:46.549Z,14.50
2022-10-12T07:44:14.740Z,14.37
2022-10-12T07:46:42.954Z,14.00
2022-10-12T07:49:12.849Z,13.97
2022-10-12T07:51:40.932Z,13.57
2022-10-12T07:54:09.660Z,14.20
2022-10-12T07:56:39.289Z,14.07
2022-10-12T07:59:07.463Z,13.80
2022-10-12T08:01:35.895Z,14.80
2022-10-12T08:04:03.987Z,14.50
2022-10-12T08:06:34.005Z,13.93
2022-10-12T08:09:02.807Z,14.37
2022-10-12T08:11:30.942Z,15.40
2022-10-12T08:14:00.433Z,15.30
2022-10-12T08:16:28.461Z,14.90
2022-10-12T08:18:56.473Z,15.90
2022-10-12T08:21:24.450Z,15.63
2022-10-12T08:23:52.469Z,16.70
2022-10-12T08:26:20.447Z,17.10
2022-10-12T08:28:48.533Z,17.07
2022-10-12T08:31:19.498Z,16.67
2022-10-12T08:33:47.504Z,16.87
2022-10-12T08:36:15.565Z,16.93
2022-10-12T08:38:45.486Z,16.63
2022-10-12T08:41:24.705Z,17.37
2022-10-12T08:44:19.864Z,18.03
2022-10-12T08:46:50.254Z,19.27
2022-10-12T08:49:21.344Z,19.57
2022-10-12T08:51:52.874Z,19.27
2022-10-12T08:54:23.572Z,18.53
2022-10-12T08:56:55.227Z,17.17
2022-10-12T08:59:23.704Z,15.60
2022-10-12T09:02:07.033Z,17.13
2022-10-12T09:04:45.313Z,19.50
2022-10-12T09:07:18.453Z,20.93
2022-10-12T09:10:14.247Z,20.97
2022-10-12T09:12:53.445Z,21.23
2022-10-12T09:15:23.789Z,20.63
2022-10-12T09:17:54.892Z,20.20
2022-10-12T09:20:24.726Z,20.13
2022-10-12T09:22:56.596Z,21.80
2022-10-12T09:25:26.962Z,20.43
2022-10-12T09:27:58.575Z,22.00
2022-10-12T09:30:30.929Z,20.67
2022-10-12T09:33:12.870Z,21.73
2022-10-12T09:35:42.159Z,22.07
2022-10-12T09:38:11.814Z,22.23
2022-10-12T09:40:41.001Z,20.17
2022-10-12T09:43:09.941Z,20.60
2022-10-12T09:45:39.402Z,20.03
2022-10-12T09:48:15.468Z,18.10
2022-10-12T09:50:46.840Z,18.10
2022-10-12T09:53:21.458Z,18.13
2022-10-12T09:55:59.035Z,15.37
2022-10-12T09:58:29.163Z,16.33
2022-10-12T10:01:21.613Z,15.73
2022-10-12T10:04:07.071Z,15.17
2022-10-12T10:06:35.934Z,15.37
2022-10-12T10:09:04.149Z,15.27
2022-10-12T10:11:32.675Z,15.10
2022-10-12T10:14:02.857Z,14.10
2022-10-12T10:16:31.821Z,14.60
2022-10-12T10:19:03.122Z,13.67
2022-10-12T10:21:34.325Z,12.67
2022-10-12T10:24:04.135Z,11.83
2022-10-12T10:26:52.838Z,9.70
2022-10-12T10:29:35.624Z,7.47
2022-10-12T10:32:12.553Z,5.65
2022-10-12T10:34:42.768Z,5.40
2022-10-12T10:37:20.543Z,5.10
2022-10-12T10:39:50.999Z,6.00
2022-10-12T10:42:21.653Z,5.60
2022-10-12T10:44:52.555Z,4.90
2022-10-12T10:47:20.855Z,4.07
2022-10-12T10:49:55.568Z,4.30
2022-10-12T10:52:26.507Z,3.25
2022-10-12T10:55:17.026Z,3.78
2022-10-12T10:57:49.494Z,3.70
2022-10-12T11:00:38.006Z,4.05
2022-10-12T11:03:14.280Z,4.20
2022-10-12T11:05:47.807Z,3.83
2022-10-12T11:08:21.319Z,4.13
2022-10-12T11:10:55.889Z,3.38
2022-10-12T11:13:29.549Z,4.13
2022-10-12T11:16:04.218Z,4.38
2022-10-12T11:18:40.921Z,4.35
2022-10-12T11:21:16.695Z,4.07
2022-10-12T11:23:50.457Z,3.97
2022-10-12T11:26:25.898Z,4.00
2022-10-12T11:28:55.854Z,4.30
2022-10-12T11:31:27.768Z,3.85
2022-10-12T11:34:01.319Z,4.30
2022-10-12T11:36:33.429Z,4.10
2022-10-12T11:39:07.187Z,3.13
2022-10-12T11:42:09.332Z,3.65
2022-10-12T11:44:42.330Z,3.80
2022-10-12T11:47:17.350Z,3.85
2022-10-12T11:49:55.095Z,3.63
2022-10-12T11:52:28.923Z,3.97
2022-10-12T11:55:01.798Z,4.05
2022-10-12T11:57:35.093Z,3.88
2022-10-12T12:00:06.424Z,5.25
2022-10-12T12:02:43.578Z,4.57
2022-10-12T12:05:16.579Z,4.43
2022-10-12T12:07:51.263Z,4.90
2022-10-12T12:10:54.347Z,5.80
2022-10-12T12:13:27.266Z,4.70
2022-10-12T12:16:34.273Z,5.10
2022-10-12T12:19:36.533Z,4.78
2022-10-12T12:22:19.893Z,5.28
2022-10-12T12:25:11.989Z,4.40
2022-10-12T12:27:43.034Z,3.95
2022-10-12T12:30:34.421Z,4.10
2022-10-12T12:33:04.509Z,3.70
2022-10-12T12:35:38.645Z,3.88
2022-10-12T12:38:25.104Z,4.30
2022-10-12T12:41:13.832Z,4.50
2022-10-12T12:44:04.170Z,3.88
2022-10-12T12:47:39.970Z,4.40
2022-10-12T12:50:00.493Z,4.82
2022-10-12T12:52:31.264Z,4.35
2022-10-12T12:55:20.324Z,4.18
2022-10-12T12:58:04.933Z,3.90
2022-10-12T13:00:39.405Z,3.50
2022-10-12T13:03:40.662Z,3.70
2022-10-12T13:06:42.922Z,3.90
2022-10-12T13:09:46.976Z,3.85
2022-10-12T13:12:42.755Z,4.20
2022-10-12T13:15:38.273Z,4.15
2022-10-12T13:18:47.586Z,5.72
2022-10-12T13:21:21.445Z,4.10
2022-10-12T13:23:52.291Z,3.97
2022-10-12T13:26:26.478Z,4.00
2022-10-12T13:28:56.895Z,3.78
2022-10-12T13:31:33.655Z,3.63
2022-10-12T13:34:08.106Z,4.00
2022-10-12T13:36:47.728Z,4.10
2022-10-12T13:39:18.084Z,3.80
2022-10-12T13:41:47.670Z,4.25
2022-10-12T13:44:23.237Z,3.70
2022-10-12T13:46:56.469Z,4.57
2022-10-12T13:49:27.485Z,3.38
2022-10-12T13:51:57.532Z,3.65
2022-10-12T13:54:28.212Z,3.90
2022-10-12T13:56:59.224Z,3.80
2022-10-12T13:59:29.629Z,3.83
2022-10-12T14:02:01.170Z,20.52
2022-10-12T14:04:31.271Z,4.10
2022-10-12T14:07:04.095Z,4.00
2022-10-12T14:09:40.497Z,3.85
2022-10-12T14:12:10.683Z,4.07
2022-10-12T14:14:41.163Z,3.65
2022-10-12T14:17:15.906Z,3.80
2022-10-12T14:19:47.933Z,3.30
2022-10-12T14:22:22.235Z,3.42
2022-10-12T14:24:50.799Z,4.13
2022-10-12T14:27:25.018Z,4.88
2022-10-12T14:29:57.429Z,4.18
2022-10-12T14:32:44.282Z,4.28
2022-10-12T14:35:24.845Z,4.35
2022-10-12T14:37:54.927Z,4.30
2022-10-12T14:40:40.657Z,4.45
2022-10-12T14:43:24.263Z,4.53
2022-10-12T14:45:53.125Z,4.57
2022-10-12T14:48:23.759Z,4.35
2022-10-12T14:50:52.561Z,4.45
2022-10-12T14:53:21.117Z,4.80
2022-10-12T14:55:52.262Z,5.05
2022-10-12T14:58:22.619Z,4.45
2022-10-12T15:00:50.740Z,4.50
2022-10-12T15:03:20.258Z,4.20
2022-10-12T15:05:49.680Z,4.55
2022-10-12T15:08:17.655Z,5.57
2022-10-12T15:10:47.000Z,6.45
2022-10-12T15:13:15.108Z,4.88
2022-10-12T15:15:46.215Z,4.50
2022-10-12T15:18:14.325Z,4.60
2022-10-12T15:20:46.896Z,4.60
2022-10-12T15:23:19.151Z,4.68
2022-10-12T15:25:51.429Z,4.97
2022-10-12T15:28:20.141Z,4.88
2022-10-12T15:31:15.358Z,4.13
2022-10-12T15:33:36.472Z,4.68
2022-10-12T15:36:04.757Z,5.55
2022-10-12T15:38:34.244Z,6.53
2022-10-12T15:41:02.263Z,6.22
2022-10-12T15:43:31.475Z,5.60
2022-10-12T15:46:00.422Z,7.80
2022-10-12T15:48:29.105Z,7.55
2022-10-12T15:50:57.388Z,8.90
2022-10-12T15:53:27.352Z,8.45
2022-10-12T15:55:57.195Z,7.45
2022-10-12T15:58:25.249Z,8.13
2022-10-12T16:00:53.619Z,6.55
2022-10-12T16:03:26.047Z,6.68
2022-10-12T16:05:54.866Z,5.72
2022-10-12T16:08:23.004Z,5.30
2022-10-12T16:10:51.643Z,5.67
2022-10-12T16:13:21.010Z,5.45
2022-10-12T16:15:49.032Z,5.83
2022-10-12T16:18:17.680Z,4.83
2022-10-12T16:20:51.106Z,5.07
2022-10-12T16:23:24.328Z,5.87
2022-10-12T16:25:52.658Z,7.90
2022-10-12T16:28:22.415Z,10.50
2022-10-12T16:30:50.837Z,11.10
2022-10-12T16:33:19.508Z,20.97
2022-10-12T16:35:47.878Z,14.70
2022-10-12T16:38:16.110Z,12.30
2022-10-12T16:40:44.093Z,13.27
2022-10-12T16:43:13.305Z,11.37
2022-10-12T16:45:42.702Z,9.80
2022-10-12T16:48:10.677Z,9.80
2022-10-12T16:50:40.974Z,9.57
2022-10-12T16:53:11.119Z,9.57
2022-10-12T16:55:40.155Z,8.93
2022-10-12T16:58:08.093Z,10.00
2022-10-12T17:00:36.829Z,10.97
2022-10-12T17:03:06.262Z,11.40
2022-10-12T17:05:34.196Z,12.83
2022-10-12T17:08:02.175Z,12.33
2022-10-12T17:10:30.452Z,13.27
2022-10-12T17:12:58.416Z,12.97
2022-10-12T17:15:26.430Z,13.33
2022-10-12T17:17:54.449Z,12.90
2022-10-12T17:20:23.769Z,14.57
2022-10-12T17:22:51.735Z,15.93
2022-10-12T17:25:19.681Z,16.87
2022-10-12T17:27:50.659Z,16.23
2022-10-12T17:30:19.621Z,15.93
2022-10-12T17:32:47.719Z,15.53
2022-10-12T17:35:15.906Z,17.03
2022-10-12T17:37:45.277Z,16.83
2022-10-12T17:40:13.212Z,17.77
2022-10-12T17:42:41.241Z,17.67
2022-10-12T17:45:09.905Z,17.03
2022-10-12T17:47:39.520Z,16.20
2022-10-12T17:50:08.257Z,17.20
2022-10-12T17:52:39.643Z,16.97
2022-10-12T17:55:29.502Z,18.07
2022-10-12T17:57:57.771Z,18.77
2022-10-12T18:00:25.962Z,17.80
2022-10-12T18:02:54.079Z,17.43
2022-10-12T18:05:22.072Z,17.70
2022-10-12T18:07:50.046Z,18.47
2022-10-12T18:10:21.489Z,17.83
2022-10-12T18:12:51.498Z,17.83
2022-10-12T18:15:19.460Z,17.43
2022-10-12T18:17:47.532Z,16.90
2022-10-12T18:20:15.517Z,17.97
2022-10-12T18:22:43.570Z,17.13
2022-10-12T18:25:11.566Z,18.70
2022-10-12T18:27:40.845Z,19.33
2022-10-12T18:30:10.105Z,17.70
2022-10-12T18:32:38.087Z,17.83
2022-10-12T18:35:07.228Z,20.03
2022-10-12T18:37:35.245Z,19.43
2022-10-12T18:40:03.159Z,18.77
2022-10-12T18:42:31.278Z,18.87
2022-10-12T18:45:00.653Z,19.77
2022-10-12T18:47:28.603Z,19.93
2022-10-12T18:49:56.668Z,18.90
2022-10-12T18:52:24.574Z,19.83
2022-10-12T18:54:52.514Z,19.23
2022-10-12T18:57:20.554Z,19.87
2022-10-12T18:59:51.325Z,19.73
2022-10-12T19:02:21.874Z,20.23
2022-10-12T19:04:50.495Z,22.03
2022-10-12T19:07:18.570Z,20.33
2022-10-12T19:09:46.490Z,20.73
2022-10-12T19:12:16.995Z,19.33
2022-10-12T19:14:45.223Z,19.27
2022-10-12T19:17:13.268Z,20.27
2022-10-12T19:19:42.754Z,20.70
2022-10-12T19:22:10.867Z,20.70
2022-10-12T19:24:38.812Z,19.10
2022-10-12T19:27:06.783Z,19.03
2022-10-12T19:29:34.736Z,19.80
2022-10-12T19:32:02.882Z,20.00
2022-10-12T19:34:30.852Z,19.73
2022-10-12T19:37:00.655Z,18.97
2022-10-12T19:39:28.730Z,20.77
2022-10-12T19:41:56.713Z,19.70
2022-10-12T19:44:24.838Z,21.63
2022-10-12T19:46:53.684Z,21.53
2022-10-12T19:49:21.906Z,21.47
2022-10-12T19:51:49.840Z,22.00
2022-10-12T19:54:19.770Z,23.20
2022-10-12T19:56:47.765Z,23.77
2022-10-12T19:59:15.801Z,23.10
2022-10-12T20:01:47.872Z,25.13
2022-10-12T20:04:16.611Z,23.10
2022-10-12T20:06:44.538Z,23.40
2022-10-12T20:09:12.933Z,22.73
2022-10-12T20:11:42.461Z,24.30
2022-10-12T20:14:11.728Z,22.73
2022-10-12T20:16:39.941Z,23.03
2022-10-12T20:19:08.131Z,23.43
2022-10-12T20:21:37.531Z,22.27
2022-10-12T20:24:05.853Z,24.00
2022-10-12T20:26:33.774Z,24.17
2022-10-12T20:29:03.152Z,25.17
2022-10-12T20:31:31.212Z,24.10
2022-10-12T20:33:59.344Z,24.37
2022-10-12T20:36:29.598Z,25.23
2022-10-12T20:38:59.100Z,24.43
2022-10-12T20:41:27.742Z,23.83
2022-10-12T20:43:57.345Z,23.90
2022-10-12T20:46:29.221Z,24.50
2022-10-12T20:48:59.307Z,25.57
2022-10-12T20:51:29.668Z,25.93
2022-10-12T20:54:00.887Z,26.03
2022-10-12T20:56:29.338Z,23.73
2022-10-12T20:58:57.354Z,25.53
2022-10-12T21:01:28.349Z,24.57
2022-10-12T21:03:56.756Z,25.20
2022-10-12T21:06:25.265Z,25.97
2022-10-12T21:08:54.869Z,26.70
2022-10-12T21:11:23.294Z,25.60
2022-10-12T21:13:51.640Z,26.63
2022-10-12T21:16:20.288Z,25.07
2022-10-12T21:18:49.626Z,25.20
2022-10-12T21:21:19.972Z,25.87
2022-10-12T21:23:54.157Z,26.80
2022-10-12T21:26:24.034Z,27.07
2022-10-12T21:28:52.250Z,27.37
2022-10-12T21:31:20.794Z,27.27
2022-10-12T21:33:50.113Z,26.97
2022-10-12T21:36:19.739Z,27.70
2022-10-12T21:38:48.088Z,27.00
2022-10-12T21:41:18.148Z,28.27
2022-10-12T21:43:46.229Z,28.20
2022-10-12T21:46:16.503Z,27.77
2022-10-12T21:48:44.738Z,27.87
2022-10-12T21:51:14.729Z,28.67
2022-10-12T21:53:42.981Z,28.90
2022-10-12T21:56:15.653Z,29.43
2022-10-12T21:58:44.260Z,28.37
2022-10-12T22:01:14.245Z,29.83
2022-10-12T22:03:43.111Z,29.93
2022-10-12T22:06:15.231Z,29.13
2022-10-12T22:08:43.269Z,29.70
2022-10-12T22:11:14.582Z,29.90
2022-10-12T22:13:42.705Z,30.17
2022-10-12T22:16:13.653Z,31.57
2022-10-12T22:18:42.150Z,30.83
2022-10-12T22:21:13.264Z,31.07
2022-10-12T22:23:43.420Z,31.63
2022-10-12T22:26:13.785Z,30.87
2022-10-12T22:28:50.131Z,31.13
2022-10-12T22:31:20.218Z,31.20
2022-10-12T22:33:48.813Z,33.27
2022-10-12T22:36:17.184Z,32.23
2022-10-12T22:38:46.605Z,33.50
2022-10-12T22:41:17.132Z,33.20
2022-10-12T22:43:48.226Z,32.23
2022-10-12T22:46:16.630Z,33.33
2022-10-12T22:48:44.803Z,33.17
2022-10-12T22:51:16.441Z,33.33
2022-10-12T22:53:44.410Z,31.80
2022-10-12T22:56:16.340Z,33.00
2022-10-12T22:58:44.477Z,32.43
2022-10-12T23:01:14.875Z,32.77
2022-10-12T23:03:43.348Z,32.63
2022-10-12T23:06:12.900Z,33.43
2022-10-12T23:08:41.563Z,34.17
2022-10-12T23:11:12.193Z,33.40
2022-10-12T23:13:42.105Z,32.63
2022-10-12T23:16:12.346Z,34.37
2022-10-12T23:18:40.914Z,32.83
2022-10-12T23:21:11.105Z,32.73
2022-10-12T23:23:40.465Z,32.50
2022-10-12T23:26:10.369Z,33.33
2022-10-12T23:28:38.664Z,33.67
2022-10-12T23:31:14.961Z,33.60
2022-10-12T23:33:43.139Z,32.90
2022-10-12T23:36:13.811Z,32.33
2022-10-12T23:38:42.862Z,34.13
2022-10-12T23:41:11.507Z,33.27
2022-10-12T23:43:39.551Z,33.07
2022-10-12T23:46:07.968Z,33.17
2022-10-12T23:48:37.365Z,34.33
2022-10-12T23:51:07.841Z,33.70
2022-10-12T23:53:36.496Z,33.40
2022-10-12T23:56:04.850Z,35.33
2022-10-12T23:58:32.865Z,34.90
